sensor_id;sensor_type;location;lat;lon;timestamp;P1;durP1;ratioP1;P2;durP2;ratioP2
26562;SDS011;14217;50.986;5.826;2024-03-06T00:04:49;0.63;;;0.20;;
26562;SDS011;14217;50.986;5.826;2024-03-06T00:09:51;0.20;;;0.20;;
26562;SDS011;14217;50.986;5.826;2024-03-06T00:14:54;1.45;;;0.32;;
26562;SDS011;14217;50.986;5.826;2024-03-06T00:19:56;0.43;;;0.17;;
26562;SDS011;14217;50.986;5.826;2024-03-06T00:24:58;0.50;;;0.30;;
26562;SDS011;14217;50.986;5.826;2024-03-06T00:30:01;2.17;;;0.40;;
26562;SDS011;14217;50.986;5.826;2024-03-06T00:35:03;0.73;;;0.40;;
26562;SDS011;14217;50.986;5.826;2024-03-06T00:40:06;0.52;;;0.10;;
26562;SDS011;14217;50.986;5.826;2024-03-06T00:45:08;0.10;;;0.10;;
26562;SDS011;14217;50.986;5.826;2024-03-06T00:50:11;0.38;;;0.30;;
26562;SDS011;14217;50.986;5.826;2024-03-06T00:55:13;0.40;;;0.30;;
26562;SDS011;14217;50.986;5.826;2024-03-06T01:00:15;0.20;;;0.13;;
26562;SDS011;14217;50.986;5.826;2024-03-06T01:05:18;0.20;;;0.20;;
26562;SDS011;14217;50.986;5.826;2024-03-06T01:10:20;1.45;;;0.32;;
26562;SDS011;14217;50.986;5.826;2024-03-06T01:15:22;0.60;;;0.45;;
26562;SDS011;14217;50.986;5.826;2024-03-06T01:20:24;0.20;;;0.20;;
26562;SDS011;14217;50.986;5.826;2024-03-06T01:25:26;0.63;;;0.28;;
26562;SDS011;14217;50.986;5.826;2024-03-06T01:30:29;0.10;;;0.10;;
26562;SDS011;14217;50.986;5.826;2024-03-06T01:35:31;0.73;;;0.22;;
26562;SDS011;14217;50.986;5.826;2024-03-06T01:40:33;0.28;;;0.22;;
26562;SDS011;14217;50.986;5.826;2024-03-06T01:45:35;1.17;;;0.30;;
26562;SDS011;14217;50.986;5.826;2024-03-06T01:50:37;0.30;;;0.20;;
26562;SDS011;14217;50.986;5.826;2024-03-06T01:55:39;0.13;;;0.13;;
26562;SDS011;14217;50.986;5.826;2024-03-06T02:00:42;2.83;;;0.43;;
26562;SDS011;14217;50.986;5.826;2024-03-06T02:05:44;0.52;;;0.30;;
26562;SDS011;14217;50.986;5.826;2024-03-06T02:10:48;0.20;;;0.20;;
26562;SDS011;14217;50.986;5.826;2024-03-06T02:15:50;0.15;;;0.15;;
26562;SDS011;14217;50.986;5.826;2024-03-06T02:20:52;0.20;;;0.20;;
26562;SDS011;14217;50.986;5.826;2024-03-06T02:25:54;0.73;;;0.30;;
26562;SDS011;14217;50.986;5.826;2024-03-06T02:30:56;0.45;;;0.30;;
26562;SDS011;14217;50.986;5.826;2024-03-06T02:35:58;0.30;;;0.28;;
26562;SDS011;14217;50.986;5.826;2024-03-06T02:41:01;0.70;;;0.25;;
26562;SDS011;14217;50.986;5.826;2024-03-06T02:46:03;0.35;;;0.30;;
26562;SDS011;14217;50.986;5.826;2024-03-06T02:51:06;0.20;;;0.20;;
26562;SDS011;14217;50.986;5.826;2024-03-06T02:56:15;0.17;;;0.10;;
26562;SDS011;14217;50.986;5.826;2024-03-06T03:01:17;0.52;;;0.30;;
26562;SDS011;14217;50.986;5.826;2024-03-06T03:06:19;0.85;;;0.52;;
26562;SDS011;14217;50.986;5.826;2024-03-06T03:11:21;0.57;;;0.40;;
26562;SDS011;14217;50.986;5.826;2024-03-06T03:16:24;0.20;;;0.20;;
26562;SDS011;14217;50.986;5.826;2024-03-06T03:21:26;1.27;;;0.52;;
26562;SDS011;14217;50.986;5.826;2024-03-06T03:26:28;0.30;;;0.20;;
26562;SDS011;14217;50.986;5.826;2024-03-06T03:31:30;0.35;;;0.25;;
26562;SDS011;14217;50.986;5.826;2024-03-06T03:36:33;0.52;;;0.30;;
26562;SDS011;14217;50.986;5.826;2024-03-06T03:41:35;0.15;;;0.13;;
26562;SDS011;14217;50.986;5.826;2024-03-06T03:46:37;0.30;;;0.20;;
26562;SDS011;14217;50.986;5.826;2024-03-06T03:51:40;0.40;;;0.20;;
26562;SDS011;14217;50.986;5.826;2024-03-06T03:56:42;0.57;;;0.30;;
26562;SDS011;14217;50.986;5.826;2024-03-06T04:01:47;2.28;;;0.32;;
26562;SDS011;14217;50.986;5.826;2024-03-06T04:06:49;0.52;;;0.15;;
26562;SDS011;14217;50.986;5.826;2024-03-06T04:11:51;0.65;;;0.40;;
26562;SDS011;14217;50.986;5.826;2024-03-06T04:16:53;0.08;;;0.08;;
26562;SDS011;14217;50.986;5.826;2024-03-06T04:21:55;0.32;;;0.32;;
26562;SDS011;14217;50.986;5.826;2024-03-06T04:26:57;1.00;;;0.38;;
26562;SDS011;14217;50.986;5.826;2024-03-06T04:31:59;0.30;;;0.30;;
26562;SDS011;14217;50.986;5.826;2024-03-06T04:37:02;0.47;;;0.20;;
26562;SDS011;14217;50.986;5.826;2024-03-06T04:42:04;0.20;;;0.20;;
26562;SDS011;14217;50.986;5.826;2024-03-06T04:47:08;0.10;;;0.10;;
26562;SDS011;14217;50.986;5.826;2024-03-06T04:52:10;0.40;;;0.22;;
26562;SDS011;14217;50.986;5.826;2024-03-06T04:57:13;0.20;;;0.20;;
26562;SDS011;14217;50.986;5.826;2024-03-06T05:02:15;0.63;;;0.30;;
26562;SDS011;14217;50.986;5.826;2024-03-06T05:07:17;0.40;;;0.20;;
26562;SDS011;14217;50.986;5.826;2024-03-06T05:12:33;0.98;;;0.28;;
26562;SDS011;14217;50.986;5.826;2024-03-06T05:17:49;0.75;;;0.20;;
26562;SDS011;14217;50.986;5.826;2024-03-06T05:23:05;5.47;;;0.70;;
26562;SDS011;14217;50.986;5.826;2024-03-06T05:28:21;0.20;;;0.20;;
26562;SDS011;14217;50.986;5.826;2024-03-06T05:33:37;0.38;;;0.30;;
26562;SDS011;14217;50.986;5.826;2024-03-06T05:38:52;0.10;;;0.10;;
26562;SDS011;14217;50.986;5.826;2024-03-06T05:44:08;0.55;;;0.20;;
26562;SDS011;14217;50.986;5.826;2024-03-06T05:49:24;0.28;;;0.17;;
26562;SDS011;14217;50.986;5.826;2024-03-06T05:54:40;0.20;;;0.20;;
26562;SDS011;14217;50.986;5.826;2024-03-06T05:59:56;0.73;;;0.25;;
26562;SDS011;14217;50.986;5.826;2024-03-06T06:04:58;0.20;;;0.20;;
26562;SDS011;14217;50.986;5.826;2024-03-06T06:10:20;0.95;;;0.38;;
26562;SDS011;14217;50.986;5.826;2024-03-06T06:15:23;3.03;;;0.45;;
26562;SDS011;14217;50.986;5.826;2024-03-06T06:20:25;4.88;;;0.47;;
26562;SDS011;14217;50.986;5.826;2024-03-06T06:25:27;1.08;;;0.30;;
26562;SDS011;14217;50.986;5.826;2024-03-06T06:30:29;0.95;;;0.68;;
26562;SDS011;14217;50.986;5.826;2024-03-06T06:35:31;0.90;;;0.40;;
26562;SDS011;14217;50.986;5.826;2024-03-06T06:40:34;0.90;;;0.55;;
26562;SDS011;14217;50.986;5.826;2024-03-06T06:45:36;1.38;;;0.30;;
26562;SDS011;14217;50.986;5.826;2024-03-06T06:50:39;0.68;;;0.43;;
26562;SDS011;14217;50.986;5.826;2024-03-06T06:55:42;0.82;;;0.40;;
26562;SDS011;14217;50.986;5.826;2024-03-06T07:00:44;0.20;;;0.20;;
26562;SDS011;14217;50.986;5.826;2024-03-06T07:05:45;0.55;;;0.43;;
26562;SDS011;14217;50.986;5.826;2024-03-06T07:10:48;1.70;;;0.40;;
26562;SDS011;14217;50.986;5.826;2024-03-06T07:15:50;1.98;;;0.30;;
26562;SDS011;14217;50.986;5.826;2024-03-06T07:20:52;1.35;;;0.70;;
26562;SDS011;14217;50.986;5.826;2024-03-06T07:25:54;1.02;;;0.55;;
26562;SDS011;14217;50.986;5.826;2024-03-06T07:30:59;0.20;;;0.20;;
26562;SDS011;14217;50.986;5.826;2024-03-06T07:36:01;1.10;;;0.30;;
26562;SDS011;14217;50.986;5.826;2024-03-06T07:41:03;2.30;;;0.40;;
26562;SDS011;14217;50.986;5.826;2024-03-06T07:46:05;2.13;;;0.85;;
26562;SDS011;14217;50.986;5.826;2024-03-06T07:51:12;0.60;;;0.30;;
26562;SDS011;14217;50.986;5.826;2024-03-06T07:56:14;0.55;;;0.20;;
26562;SDS011;14217;50.986;5.826;2024-03-06T08:01:17;0.43;;;0.25;;
26562;SDS011;14217;50.986;5.826;2024-03-06T08:06:19;0.25;;;0.25;;
26562;SDS011;14217;50.986;5.826;2024-03-06T08:11:21;0.63;;;0.40;;
26562;SDS011;14217;50.986;5.826;2024-03-06T08:16:24;0.65;;;0.28;;
26562;SDS011;14217;50.986;5.826;2024-03-06T08:21:26;0.43;;;0.22;;
26562;SDS011;14217;50.986;5.826;2024-03-06T08:26:29;0.43;;;0.30;;
26562;SDS011;14217;50.986;5.826;2024-03-06T08:31:31;4.13;;;1.02;;
26562;SDS011;14217;50.986;5.826;2024-03-06T08:36:34;0.68;;;0.32;;
26562;SDS011;14217;50.986;5.826;2024-03-06T08:41:36;1.48;;;0.63;;
26562;SDS011;14217;50.986;5.826;2024-03-06T08:46:38;0.45;;;0.45;;
26562;SDS011;14217;50.986;5.826;2024-03-06T08:51:40;0.30;;;0.20;;
26562;SDS011;14217;50.986;5.826;2024-03-06T08:56:43;0.47;;;0.32;;
26562;SDS011;14217;50.986;5.826;2024-03-06T09:01:46;1.08;;;0.63;;
26562;SDS011;14217;50.986;5.826;2024-03-06T09:06:49;0.55;;;0.52;;
26562;SDS011;14217;50.986;5.826;2024-03-06T09:11:51;0.63;;;0.30;;
26562;SDS011;14217;50.986;5.826;2024-03-06T09:16:53;1.02;;;0.35;;
26562;SDS011;14217;50.986;5.826;2024-03-06T09:21:55;1.75;;;1.00;;
26562;SDS011;14217;50.986;5.826;2024-03-06T09:27:01;0.30;;;0.28;;
26562;SDS011;14217;50.986;5.826;2024-03-06T09:32:03;1.75;;;0.50;;
26562;SDS011;14217;50.986;5.826;2024-03-06T09:37:06;1.88;;;0.30;;
26562;SDS011;14217;50.986;5.826;2024-03-06T09:42:08;0.57;;;0.40;;
26562;SDS011;14217;50.986;5.826;2024-03-06T09:47:12;1.38;;;0.45;;
26562;SDS011;14217;50.986;5.826;2024-03-06T09:52:18;0.20;;;0.20;;
26562;SDS011;14217;50.986;5.826;2024-03-06T09:57:20;0.65;;;0.63;;
26562;SDS011;14217;50.986;5.826;2024-03-06T10:07:36;1.15;;;0.70;;
26562;SDS011;14217;50.986;5.826;2024-03-06T10:12:38;0.63;;;0.17;;
26562;SDS011;14217;50.986;5.826;2024-03-06T10:17:40;0.20;;;0.20;;
26562;SDS011;14217;50.986;5.826;2024-03-06T10:22:48;2.15;;;0.95;;
26562;SDS011;14217;50.986;5.826;2024-03-06T10:33:09;4.25;;;0.35;;
26562;SDS011;14217;50.986;5.826;2024-03-06T10:38:11;0.55;;;0.50;;
26562;SDS011;14217;50.986;5.826;2024-03-06T10:43:14;0.60;;;0.20;;
26562;SDS011;14217;50.986;5.826;2024-03-06T10:48:18;0.40;;;0.40;;
26562;SDS011;14217;50.986;5.826;2024-03-06T10:53:20;0.38;;;0.30;;
26562;SDS011;14217;50.986;5.826;2024-03-06T10:58:27;1.23;;;0.40;;
26562;SDS011;14217;50.986;5.826;2024-03-06T11:03:32;0.73;;;0.22;;
26562;SDS011;14217;50.986;5.826;2024-03-06T11:08:37;0.82;;;0.40;;
26562;SDS011;14217;50.986;5.826;2024-03-06T11:13:39;0.68;;;0.30;;
26562;SDS011;14217;50.986;5.826;2024-03-06T11:18:42;0.65;;;0.20;;
26562;SDS011;14217;50.986;5.826;2024-03-06T11:29:18;1.08;;;0.20;;
26562;SDS011;14217;50.986;5.826;2024-03-06T11:34:21;0.85;;;0.20;;
26562;SDS011;14217;50.986;5.826;2024-03-06T11:39:24;0.52;;;0.47;;
26562;SDS011;14217;50.986;5.826;2024-03-06T11:44:29;0.93;;;0.30;;
26562;SDS011;14217;50.986;5.826;2024-03-06T11:49:33;0.47;;;0.40;;
26562;SDS011;14217;50.986;5.826;2024-03-06T11:54:36;0.60;;;0.38;;
26562;SDS011;14217;50.986;5.826;2024-03-06T11:59:39;0.20;;;0.20;;
26562;SDS011;14217;50.986;5.826;2024-03-06T12:04:41;1.00;;;0.38;;
26562;SDS011;14217;50.986;5.826;2024-03-06T12:09:43;0.93;;;0.20;;
26562;SDS011;14217;50.986;5.826;2024-03-06T12:14:55;0.45;;;0.25;;
26562;SDS011;14217;50.986;5.826;2024-03-06T12:19:59;3.33;;;0.80;;
26562;SDS011;14217;50.986;5.826;2024-03-06T12:25:01;1.65;;;0.50;;
26562;SDS011;14217;50.986;5.826;2024-03-06T12:30:09;0.73;;;0.40;;
26562;SDS011;14217;50.986;5.826;2024-03-06T12:35:23;0.60;;;0.60;;
26562;SDS011;14217;50.986;5.826;2024-03-06T12:40:26;1.02;;;0.52;;
26562;SDS011;14217;50.986;5.826;2024-03-06T12:45:30;0.40;;;0.28;;
26562;SDS011;14217;50.986;5.826;2024-03-06T12:50:32;0.75;;;0.50;;
26562;SDS011;14217;50.986;5.826;2024-03-06T12:55:34;0.45;;;0.20;;
26562;SDS011;14217;50.986;5.826;2024-03-06T13:00:37;0.77;;;0.25;;
26562;SDS011;14217;50.986;5.826;2024-03-06T13:05:39;1.58;;;0.40;;
26562;SDS011;14217;50.986;5.826;2024-03-06T13:10:42;0.57;;;0.30;;
26562;SDS011;14217;50.986;5.826;2024-03-06T13:15:44;0.82;;;0.20;;
26562;SDS011;14217;50.986;5.826;2024-03-06T13:20:47;0.20;;;0.20;;
26562;SDS011;14217;50.986;5.826;2024-03-06T13:25:50;0.40;;;0.28;;
26562;SDS011;14217;50.986;5.826;2024-03-06T13:30:52;0.30;;;0.28;;
26562;SDS011;14217;50.986;5.826;2024-03-06T13:35:54;0.63;;;0.20;;
26562;SDS011;14217;50.986;5.826;2024-03-06T13:40:57;0.75;;;0.35;;
26562;SDS011;14217;50.986;5.826;2024-03-06T13:45:59;0.20;;;0.20;;
26562;SDS011;14217;50.986;5.826;2024-03-06T13:51:01;0.63;;;0.20;;
26562;SDS011;14217;50.986;5.826;2024-03-06T13:56:04;1.10;;;0.20;;
26562;SDS011;14217;50.986;5.826;2024-03-06T14:01:06;0.28;;;0.20;;
26562;SDS011;14217;50.986;5.826;2024-03-06T14:06:08;0.30;;;0.30;;
26562;SDS011;14217;50.986;5.826;2024-03-06T14:11:11;0.25;;;0.20;;
26562;SDS011;14217;50.986;5.826;2024-03-06T14:16:13;0.55;;;0.30;;
26562;SDS011;14217;50.986;5.826;2024-03-06T14:21:15;0.22;;;0.20;;
26562;SDS011;14217;50.986;5.826;2024-03-06T14:26:17;0.63;;;0.20;;
26562;SDS011;14217;50.986;5.826;2024-03-06T14:31:20;1.27;;;0.40;;
26562;SDS011;14217;50.986;5.826;2024-03-06T14:36:22;0.77;;;0.30;;
26562;SDS011;14217;50.986;5.826;2024-03-06T14:41:26;0.55;;;0.20;;
26562;SDS011;14217;50.986;5.826;2024-03-06T14:46:28;0.22;;;0.22;;
26562;SDS011;14217;50.986;5.826;2024-03-06T14:51:30;0.80;;;0.20;;
26562;SDS011;14217;50.986;5.826;2024-03-06T14:56:32;0.22;;;0.17;;
26562;SDS011;14217;50.986;5.826;2024-03-06T15:01:35;0.45;;;0.35;;
26562;SDS011;14217;50.986;5.826;2024-03-06T15:06:39;0.70;;;0.22;;
26562;SDS011;14217;50.986;5.826;2024-03-06T15:11:41;0.50;;;0.20;;
26562;SDS011;14217;50.986;5.826;2024-03-06T15:16:43;0.32;;;0.32;;
26562;SDS011;14217;50.986;5.826;2024-03-06T15:21:45;0.20;;;0.20;;
26562;SDS011;14217;50.986;5.826;2024-03-06T15:26:48;1.55;;;0.43;;
26562;SDS011;14217;50.986;5.826;2024-03-06T15:31:50;0.40;;;0.20;;
26562;SDS011;14217;50.986;5.826;2024-03-06T15:36:52;0.40;;;0.38;;
26562;SDS011;14217;50.986;5.826;2024-03-06T15:41:57;1.75;;;0.38;;
26562;SDS011;14217;50.986;5.826;2024-03-06T15:46:59;0.50;;;0.20;;
26562;SDS011;14217;50.986;5.826;2024-03-06T15:52:11;0.52;;;0.20;;
26562;SDS011;14217;50.986;5.826;2024-03-06T15:57:14;1.15;;;0.40;;
26562;SDS011;14217;50.986;5.826;2024-03-06T16:02:20;0.60;;;0.35;;
26562;SDS011;14217;50.986;5.826;2024-03-06T16:07:22;0.40;;;0.20;;
26562;SDS011;14217;50.986;5.826;2024-03-06T16:12:24;0.40;;;0.30;;
26562;SDS011;14217;50.986;5.826;2024-03-06T16:17:27;0.20;;;0.20;;
26562;SDS011;14217;50.986;5.826;2024-03-06T16:22:29;0.30;;;0.30;;
26562;SDS011;14217;50.986;5.826;2024-03-06T16:27:31;0.25;;;0.20;;
26562;SDS011;14217;50.986;5.826;2024-03-06T16:32:33;0.73;;;0.30;;
26562;SDS011;14217;50.986;5.826;2024-03-06T16:37:35;3.03;;;0.52;;
26562;SDS011;14217;50.986;5.826;2024-03-06T16:42:37;0.82;;;0.30;;
26562;SDS011;14217;50.986;5.826;2024-03-06T16:47:39;2.53;;;0.30;;
26562;SDS011;14217;50.986;5.826;2024-03-06T16:52:42;0.20;;;0.20;;
26562;SDS011;14217;50.986;5.826;2024-03-06T16:57:44;1.75;;;0.35;;
26562;SDS011;14217;50.986;5.826;2024-03-06T17:02:46;0.60;;;0.20;;
26562;SDS011;14217;50.986;5.826;2024-03-06T17:07:48;0.20;;;0.20;;
26562;SDS011;14217;50.986;5.826;2024-03-06T17:12:50;1.05;;;0.43;;
26562;SDS011;14217;50.986;5.826;2024-03-06T17:17:53;1.10;;;0.65;;
26562;SDS011;14217;50.986;5.826;2024-03-06T17:22:55;0.82;;;0.30;;
26562;SDS011;14217;50.986;5.826;2024-03-06T17:27:59;2.85;;;0.68;;
26562;SDS011;14217;50.986;5.826;2024-03-06T17:33:01;1.33;;;0.43;;
26562;SDS011;14217;50.986;5.826;2024-03-06T17:38:04;0.90;;;0.40;;
26562;SDS011;14217;50.986;5.826;2024-03-06T17:43:06;0.75;;;0.30;;
26562;SDS011;14217;50.986;5.826;2024-03-06T17:48:08;1.45;;;0.57;;
26562;SDS011;14217;50.986;5.826;2024-03-06T17:53:10;0.50;;;0.30;;
26562;SDS011;14217;50.986;5.826;2024-03-06T17:58:12;2.10;;;0.57;;
26562;SDS011;14217;50.986;5.826;2024-03-06T18:03:14;0.40;;;0.25;;
26562;SDS011;14217;50.986;5.826;2024-03-06T18:08:17;7.05;;;0.60;;
26562;SDS011;14217;50.986;5.826;2024-03-06T18:13:19;0.47;;;0.30;;
26562;SDS011;14217;50.986;5.826;2024-03-06T18:18:21;0.20;;;0.20;;
26562;SDS011;14217;50.986;5.826;2024-03-06T18:23:23;0.40;;;0.28;;
26562;SDS011;14217;50.986;5.826;2024-03-06T18:28:26;0.40;;;0.22;;
26562;SDS011;14217;50.986;5.826;2024-03-06T18:33:28;1.25;;;0.43;;
26562;SDS011;14217;50.986;5.826;2024-03-06T18:38:31;0.47;;;0.30;;
26562;SDS011;14217;50.986;5.826;2024-03-06T18:43:33;1.65;;;0.60;;
26562;SDS011;14217;50.986;5.826;2024-03-06T18:48:35;0.20;;;0.20;;
26562;SDS011;14217;50.986;5.826;2024-03-06T18:53:37;0.38;;;0.30;;
26562;SDS011;14217;50.986;5.826;2024-03-06T18:58:39;0.40;;;0.40;;
26562;SDS011;14217;50.986;5.826;2024-03-06T19:03:41;1.45;;;0.40;;
26562;SDS011;14217;50.986;5.826;2024-03-06T19:08:43;0.60;;;0.52;;
26562;SDS011;14217;50.986;5.826;2024-03-06T19:13:48;0.73;;;0.30;;
26562;SDS011;14217;50.986;5.826;2024-03-06T19:18:50;0.63;;;0.60;;
26562;SDS011;14217;50.986;5.826;2024-03-06T19:23:52;0.70;;;0.45;;
26562;SDS011;14217;50.986;5.826;2024-03-06T19:28:54;0.80;;;0.60;;
26562;SDS011;14217;50.986;5.826;2024-03-06T19:33:56;0.22;;;0.22;;
26562;SDS011;14217;50.986;5.826;2024-03-06T19:38:58;0.70;;;0.40;;
26562;SDS011;14217;50.986;5.826;2024-03-06T19:44:00;0.32;;;0.32;;
26562;SDS011;14217;50.986;5.826;2024-03-06T19:49:02;0.57;;;0.50;;
26562;SDS011;14217;50.986;5.826;2024-03-06T19:54:05;0.85;;;0.50;;
26562;SDS011;14217;50.986;5.826;2024-03-06T19:59:07;0.38;;;0.38;;
26562;SDS011;14217;50.986;5.826;2024-03-06T20:04:10;0.68;;;0.60;;
26562;SDS011;14217;50.986;5.826;2024-03-06T20:09:12;1.75;;;0.47;;
26562;SDS011;14217;50.986;5.826;2024-03-06T20:14:15;0.55;;;0.50;;
26562;SDS011;14217;50.986;5.826;2024-03-06T20:19:17;0.93;;;0.52;;
26562;SDS011;14217;50.986;5.826;2024-03-06T20:24:19;0.40;;;0.40;;
26562;SDS011;14217;50.986;5.826;2024-03-06T20:29:22;1.35;;;0.30;;
26562;SDS011;14217;50.986;5.826;2024-03-06T20:34:25;0.70;;;0.70;;
26562;SDS011;14217;50.986;5.826;2024-03-06T20:39:27;0.73;;;0.73;;
26562;SDS011;14217;50.986;5.826;2024-03-06T20:44:30;0.88;;;0.77;;
26562;SDS011;14217;50.986;5.826;2024-03-06T20:49:32;0.57;;;0.50;;
26562;SDS011;14217;50.986;5.826;2024-03-06T20:54:34;0.50;;;0.50;;
26562;SDS011;14217;50.986;5.826;2024-03-06T20:59:36;5.10;;;0.75;;
26562;SDS011;14217;50.986;5.826;2024-03-06T21:04:38;0.75;;;0.63;;
26562;SDS011;14217;50.986;5.826;2024-03-06T21:09:41;1.98;;;1.00;;
26562;SDS011;14217;50.986;5.826;2024-03-06T21:14:43;1.60;;;1.25;;
26562;SDS011;14217;50.986;5.826;2024-03-06T21:19:45;1.92;;;1.38;;
26562;SDS011;14217;50.986;5.826;2024-03-06T21:24:47;5.63;;;1.73;;
26562;SDS011;14217;50.986;5.826;2024-03-06T21:29:49;2.55;;;2.35;;
26562;SDS011;14217;50.986;5.826;2024-03-06T21:34:51;2.25;;;1.73;;
26562;SDS011;14217;50.986;5.826;2024-03-06T21:39:54;2.28;;;2.03;;
26562;SDS011;14217;50.986;5.826;2024-03-06T21:44:56;3.53;;;2.35;;
26562;SDS011;14217;50.986;5.826;2024-03-06T21:49:58;2.35;;;1.90;;
26562;SDS011;14217;50.986;5.826;2024-03-06T21:55:01;2.28;;;1.98;;
26562;SDS011;14217;50.986;5.826;2024-03-06T22:00:05;2.20;;;1.92;;
26562;SDS011;14217;50.986;5.826;2024-03-06T22:05:08;3.20;;;2.15;;
26562;SDS011;14217;50.986;5.826;2024-03-06T22:10:10;2.63;;;1.60;;
26562;SDS011;14217;50.986;5.826;2024-03-06T22:15:12;2.40;;;2.20;;
26562;SDS011;14217;50.986;5.826;2024-03-06T22:20:15;2.90;;;2.33;;
26562;SDS011;14217;50.986;5.826;2024-03-06T22:25:17;1.92;;;1.83;;
26562;SDS011;14217;50.986;5.826;2024-03-06T22:30:19;2.22;;;2.08;;
26562;SDS011;14217;50.986;5.826;2024-03-06T22:35:22;6.55;;;2.75;;
26562;SDS011;14217;50.986;5.826;2024-03-06T22:40:23;2.17;;;1.95;;
26562;SDS011;14217;50.986;5.826;2024-03-06T22:45:26;1.65;;;1.55;;
26562;SDS011;14217;50.986;5.826;2024-03-06T22:50:28;2.83;;;2.05;;
26562;SDS011;14217;50.986;5.826;2024-03-06T22:55:30;2.58;;;2.38;;
26562;SDS011;14217;50.986;5.826;2024-03-06T23:00:34;2.00;;;1.80;;
26562;SDS011;14217;50.986;5.826;2024-03-06T23:05:40;2.17;;;1.98;;
26562;SDS011;14217;50.986;5.826;2024-03-06T23:10:44;2.33;;;2.13;;
26562;SDS011;14217;50.986;5.826;2024-03-06T23:15:46;4.90;;;2.60;;
26562;SDS011;14217;50.986;5.826;2024-03-06T23:20:48;2.40;;;1.83;;
26562;SDS011;14217;50.986;5.826;2024-03-06T23:25:51;1.80;;;1.58;;
26562;SDS011;14217;50.986;5.826;2024-03-06T23:30:53;2.88;;;2.22;;
26562;SDS011;14217;50.986;5.826;2024-03-06T23:35:55;2.50;;;1.90;;
26562;SDS011;14217;50.986;5.826;2024-03-06T23:40:58;2.05;;;1.75;;
26562;SDS011;14217;50.986;5.826;2024-03-06T23:45:59;2.55;;;2.20;;
26562;SDS011;14217;50.986;5.826;2024-03-06T23:51:02;2.33;;;2.13;;
26562;SDS011;14217;50.986;5.826;2024-03-06T23:56:05;3.28;;;2.15;;
